Scaggsville, Maryland
Current Conditions -  °F | °C
As of 5:54 PM on Friday 19 Dec 2014 (Local Time) from KFME Reporting Station
Clear Clear  
Wind Chill: 30°   Ceiling: Unl
Heat Index: 34°   Visibility: 10mi
Dew Point: 23°   Wind: 5mph
Humidity: 65%   Direction: 310°NW
Pressure: 30.2"   Gusts: NA
Location:  39.1364°N, 76.8642°W
Report Text: KFME 192254Z AUTO 31004KT 10SM CLR 01/M05 A3020 RMK AO1
Loading
Personal Weather Stations






























Interactive Weather Map New forecast layout! Learn more

10-Day Weather Forecast

Advertisements
Track Severe Weather on mobile